sensor_id;sensor_type;location;lat;lon;timestamp;P1;durP1;ratioP1;P2;durP2;ratioP2
1378;SDS011;683;48.738;9.226;2022-12-18T00:00:01;81.57;;;39.67;;
1378;SDS011;683;48.738;9.226;2022-12-18T00:02:39;85.53;;;38.53;;
1378;SDS011;683;48.738;9.226;2022-12-18T00:05:07;76.30;;;39.00;;
1378;SDS011;683;48.738;9.226;2022-12-18T00:07:35;83.10;;;38.10;;
1378;SDS011;683;48.738;9.226;2022-12-18T00:10:02;79.70;;;39.57;;
1378;SDS011;683;48.738;9.226;2022-12-18T00:12:30;71.93;;;40.17;;
1378;SDS011;683;48.738;9.226;2022-12-18T00:14:59;86.53;;;41.57;;
1378;SDS011;683;48.738;9.226;2022-12-18T00:17:26;80.80;;;39.30;;
1378;SDS011;683;48.738;9.226;2022-12-18T00:19:53;84.43;;;40.20;;
1378;SDS011;683;48.738;9.226;2022-12-18T00:22:20;92.17;;;39.30;;
1378;SDS011;683;48.738;9.226;2022-12-18T00:24:47;81.07;;;39.07;;
1378;SDS011;683;48.738;9.226;2022-12-18T00:27:15;92.70;;;42.73;;
1378;SDS011;683;48.738;9.226;2022-12-18T00:29:42;96.43;;;42.40;;
1378;SDS011;683;48.738;9.226;2022-12-18T00:32:10;86.93;;;38.97;;
1378;SDS011;683;48.738;9.226;2022-12-18T00:34:38;94.27;;;42.43;;
1378;SDS011;683;48.738;9.226;2022-12-18T00:37:06;101.93;;;42.83;;
1378;SDS011;683;48.738;9.226;2022-12-18T00:39:33;89.30;;;43.83;;
1378;SDS011;683;48.738;9.226;2022-12-18T00:42:00;98.67;;;42.80;;
1378;SDS011;683;48.738;9.226;2022-12-18T00:44:45;100.07;;;41.47;;
1378;SDS011;683;48.738;9.226;2022-12-18T00:47:13;95.67;;;39.20;;
1378;SDS011;683;48.738;9.226;2022-12-18T00:49:40;91.30;;;43.37;;
1378;SDS011;683;48.738;9.226;2022-12-18T00:52:07;75.80;;;38.53;;
1378;SDS011;683;48.738;9.226;2022-12-18T00:54:35;89.03;;;42.50;;
1378;SDS011;683;48.738;9.226;2022-12-18T00:57:02;87.47;;;38.13;;
1378;SDS011;683;48.738;9.226;2022-12-18T00:59:29;89.80;;;40.80;;
1378;SDS011;683;48.738;9.226;2022-12-18T01:01:57;86.43;;;41.57;;
1378;SDS011;683;48.738;9.226;2022-12-18T01:04:25;81.93;;;37.37;;
1378;SDS011;683;48.738;9.226;2022-12-18T01:06:53;78.03;;;37.10;;
1378;SDS011;683;48.738;9.226;2022-12-18T01:09:21;71.50;;;33.27;;
1378;SDS011;683;48.738;9.226;2022-12-18T01:11:49;70.20;;;35.37;;
1378;SDS011;683;48.738;9.226;2022-12-18T01:14:17;86.17;;;37.90;;
1378;SDS011;683;48.738;9.226;2022-12-18T01:16:44;82.07;;;33.00;;
1378;SDS011;683;48.738;9.226;2022-12-18T01:19:11;68.77;;;34.10;;
1378;SDS011;683;48.738;9.226;2022-12-18T01:21:40;67.70;;;34.57;;
1378;SDS011;683;48.738;9.226;2022-12-18T01:24:07;62.07;;;33.70;;
1378;SDS011;683;48.738;9.226;2022-12-18T01:26:38;78.00;;;36.07;;
1378;SDS011;683;48.738;9.226;2022-12-18T01:29:05;64.70;;;35.77;;
1378;SDS011;683;48.738;9.226;2022-12-18T01:31:33;64.57;;;32.70;;
1378;SDS011;683;48.738;9.226;2022-12-18T01:34:01;75.33;;;37.43;;
1378;SDS011;683;48.738;9.226;2022-12-18T01:36:30;64.73;;;36.00;;
1378;SDS011;683;48.738;9.226;2022-12-18T01:39:01;82.40;;;35.63;;
1378;SDS011;683;48.738;9.226;2022-12-18T01:41:30;65.27;;;33.80;;
1378;SDS011;683;48.738;9.226;2022-12-18T01:47:13;67.70;;;33.27;;
1378;SDS011;683;48.738;9.226;2022-12-18T01:49:42;71.73;;;36.10;;
1378;SDS011;683;48.738;9.226;2022-12-18T01:52:09;72.17;;;34.70;;
1378;SDS011;683;48.738;9.226;2022-12-18T01:54:37;56.90;;;31.07;;
1378;SDS011;683;48.738;9.226;2022-12-18T01:57:05;59.73;;;31.27;;
1378;SDS011;683;48.738;9.226;2022-12-18T01:59:32;59.83;;;30.90;;
1378;SDS011;683;48.738;9.226;2022-12-18T02:02:02;60.23;;;31.50;;
1378;SDS011;683;48.738;9.226;2022-12-18T02:04:29;65.73;;;31.57;;
1378;SDS011;683;48.738;9.226;2022-12-18T02:06:57;57.97;;;32.87;;
1378;SDS011;683;48.738;9.226;2022-12-18T02:09:31;64.20;;;34.17;;
1378;SDS011;683;48.738;9.226;2022-12-18T02:12:09;61.87;;;33.00;;
1378;SDS011;683;48.738;9.226;2022-12-18T02:14:44;63.70;;;29.33;;
1378;SDS011;683;48.738;9.226;2022-12-18T02:17:20;62.20;;;29.40;;
1378;SDS011;683;48.738;9.226;2022-12-18T02:19:55;59.83;;;28.60;;
1378;SDS011;683;48.738;9.226;2022-12-18T02:22:34;70.27;;;31.00;;
1378;SDS011;683;48.738;9.226;2022-12-18T02:25:13;52.67;;;30.07;;
1378;SDS011;683;48.738;9.226;2022-12-18T02:27:54;55.93;;;30.73;;
1378;SDS011;683;48.738;9.226;2022-12-18T02:30:26;62.60;;;31.67;;
1378;SDS011;683;48.738;9.226;2022-12-18T02:32:56;56.03;;;28.50;;
1378;SDS011;683;48.738;9.226;2022-12-18T02:35:26;60.07;;;31.00;;
1378;SDS011;683;48.738;9.226;2022-12-18T02:37:58;61.23;;;32.67;;
1378;SDS011;683;48.738;9.226;2022-12-18T02:40:29;50.20;;;28.10;;
1378;SDS011;683;48.738;9.226;2022-12-18T02:43:03;60.70;;;31.00;;
1378;SDS011;683;48.738;9.226;2022-12-18T02:45:34;54.00;;;29.50;;
1378;SDS011;683;48.738;9.226;2022-12-18T02:48:02;57.57;;;32.13;;
1378;SDS011;683;48.738;9.226;2022-12-18T02:50:35;46.77;;;26.63;;
1378;SDS011;683;48.738;9.226;2022-12-18T02:53:10;52.03;;;30.40;;
1378;SDS011;683;48.738;9.226;2022-12-18T02:55:47;48.20;;;26.23;;
1378;SDS011;683;48.738;9.226;2022-12-18T02:58:30;51.97;;;26.33;;
1378;SDS011;683;48.738;9.226;2022-12-18T03:01:14;54.13;;;27.23;;
1378;SDS011;683;48.738;9.226;2022-12-18T03:03:46;53.70;;;28.20;;
1378;SDS011;683;48.738;9.226;2022-12-18T03:06:20;51.00;;;29.00;;
1378;SDS011;683;48.738;9.226;2022-12-18T03:08:51;51.80;;;27.60;;
1378;SDS011;683;48.738;9.226;2022-12-18T03:11:23;44.83;;;26.40;;
1378;SDS011;683;48.738;9.226;2022-12-18T03:14:08;42.33;;;25.73;;
1378;SDS011;683;48.738;9.226;2022-12-18T03:16:39;42.97;;;25.07;;
1378;SDS011;683;48.738;9.226;2022-12-18T03:19:10;48.63;;;25.90;;
1378;SDS011;683;48.738;9.226;2022-12-18T03:21:42;49.20;;;26.77;;
1378;SDS011;683;48.738;9.226;2022-12-18T03:24:13;41.67;;;25.10;;
1378;SDS011;683;48.738;9.226;2022-12-18T03:26:43;54.90;;;27.80;;
1378;SDS011;683;48.738;9.226;2022-12-18T03:29:17;58.73;;;26.87;;
1378;SDS011;683;48.738;9.226;2022-12-18T03:31:54;51.27;;;26.17;;
1378;SDS011;683;48.738;9.226;2022-12-18T03:34:29;50.83;;;26.37;;
1378;SDS011;683;48.738;9.226;2022-12-18T03:37:04;48.40;;;27.90;;
1378;SDS011;683;48.738;9.226;2022-12-18T03:39:33;46.33;;;26.27;;
1378;SDS011;683;48.738;9.226;2022-12-18T03:42:03;55.60;;;29.40;;
1378;SDS011;683;48.738;9.226;2022-12-18T03:44:42;50.43;;;25.37;;
1378;SDS011;683;48.738;9.226;2022-12-18T03:47:16;46.30;;;25.47;;
1378;SDS011;683;48.738;9.226;2022-12-18T03:49:53;44.30;;;26.30;;
1378;SDS011;683;48.738;9.226;2022-12-18T03:52:26;49.20;;;27.60;;
1378;SDS011;683;48.738;9.226;2022-12-18T03:54:58;53.30;;;26.57;;
1378;SDS011;683;48.738;9.226;2022-12-18T03:57:28;63.60;;;26.10;;
1378;SDS011;683;48.738;9.226;2022-12-18T04:00:00;52.83;;;26.97;;
1378;SDS011;683;48.738;9.226;2022-12-18T04:02:39;39.93;;;23.23;;
1378;SDS011;683;48.738;9.226;2022-12-18T04:05:14;50.70;;;27.10;;
1378;SDS011;683;48.738;9.226;2022-12-18T04:07:44;48.87;;;26.40;;
1378;SDS011;683;48.738;9.226;2022-12-18T04:10:14;49.13;;;25.77;;
1378;SDS011;683;48.738;9.226;2022-12-18T04:12:44;53.60;;;27.37;;
1378;SDS011;683;48.738;9.226;2022-12-18T04:15:14;45.30;;;26.80;;
1378;SDS011;683;48.738;9.226;2022-12-18T04:17:45;61.23;;;28.90;;
1378;SDS011;683;48.738;9.226;2022-12-18T04:20:17;51.90;;;26.33;;
1378;SDS011;683;48.738;9.226;2022-12-18T04:22:45;43.93;;;23.73;;
1378;SDS011;683;48.738;9.226;2022-12-18T04:25:13;52.97;;;26.33;;
1378;SDS011;683;48.738;9.226;2022-12-18T04:27:52;52.73;;;28.03;;
1378;SDS011;683;48.738;9.226;2022-12-18T04:30:21;44.20;;;25.83;;
1378;SDS011;683;48.738;9.226;2022-12-18T04:32:48;53.57;;;28.23;;
1378;SDS011;683;48.738;9.226;2022-12-18T04:35:15;57.53;;;27.10;;
1378;SDS011;683;48.738;9.226;2022-12-18T04:37:43;56.93;;;26.43;;
1378;SDS011;683;48.738;9.226;2022-12-18T04:40:11;46.17;;;25.77;;
1378;SDS011;683;48.738;9.226;2022-12-18T04:42:43;48.03;;;24.67;;
1378;SDS011;683;48.738;9.226;2022-12-18T04:45:10;51.47;;;25.73;;
1378;SDS011;683;48.738;9.226;2022-12-18T04:47:38;59.70;;;27.60;;
1378;SDS011;683;48.738;9.226;2022-12-18T04:50:06;44.23;;;24.73;;
1378;SDS011;683;48.738;9.226;2022-12-18T04:52:34;53.70;;;25.30;;
1378;SDS011;683;48.738;9.226;2022-12-18T04:55:01;43.10;;;23.80;;
1378;SDS011;683;48.738;9.226;2022-12-18T04:57:28;44.57;;;24.60;;
1378;SDS011;683;48.738;9.226;2022-12-18T04:59:55;39.87;;;23.77;;
1378;SDS011;683;48.738;9.226;2022-12-18T05:02:23;58.63;;;24.80;;
1378;SDS011;683;48.738;9.226;2022-12-18T05:04:51;40.40;;;23.80;;
1378;SDS011;683;48.738;9.226;2022-12-18T05:07:18;38.27;;;23.13;;
1378;SDS011;683;48.738;9.226;2022-12-18T05:09:46;54.17;;;23.80;;
1378;SDS011;683;48.738;9.226;2022-12-18T05:12:13;51.33;;;22.23;;
1378;SDS011;683;48.738;9.226;2022-12-18T05:14:40;42.00;;;23.17;;
1378;SDS011;683;48.738;9.226;2022-12-18T05:17:07;41.37;;;23.83;;
1378;SDS011;683;48.738;9.226;2022-12-18T05:19:34;45.03;;;23.07;;
1378;SDS011;683;48.738;9.226;2022-12-18T05:22:09;44.40;;;25.03;;
1378;SDS011;683;48.738;9.226;2022-12-18T05:24:36;52.27;;;25.20;;
1378;SDS011;683;48.738;9.226;2022-12-18T05:27:03;51.77;;;24.63;;
1378;SDS011;683;48.738;9.226;2022-12-18T05:29:31;49.40;;;23.57;;
1378;SDS011;683;48.738;9.226;2022-12-18T05:31:58;52.73;;;25.03;;
1378;SDS011;683;48.738;9.226;2022-12-18T05:34:25;45.33;;;24.30;;
1378;SDS011;683;48.738;9.226;2022-12-18T05:36:52;42.07;;;24.07;;
1378;SDS011;683;48.738;9.226;2022-12-18T05:39:21;55.77;;;26.80;;
1378;SDS011;683;48.738;9.226;2022-12-18T05:41:48;50.77;;;23.40;;
1378;SDS011;683;48.738;9.226;2022-12-18T05:44:15;45.93;;;23.67;;
1378;SDS011;683;48.738;9.226;2022-12-18T05:46:42;40.03;;;22.43;;
1378;SDS011;683;48.738;9.226;2022-12-18T05:49:10;46.30;;;24.07;;
1378;SDS011;683;48.738;9.226;2022-12-18T05:51:37;46.37;;;25.17;;
1378;SDS011;683;48.738;9.226;2022-12-18T05:54:04;51.40;;;26.60;;
1378;SDS011;683;48.738;9.226;2022-12-18T05:56:32;44.07;;;21.97;;
1378;SDS011;683;48.738;9.226;2022-12-18T05:59:00;41.53;;;23.67;;
1378;SDS011;683;48.738;9.226;2022-12-18T06:01:27;44.40;;;25.37;;
1378;SDS011;683;48.738;9.226;2022-12-18T06:03:54;45.77;;;23.17;;
1378;SDS011;683;48.738;9.226;2022-12-18T06:06:22;46.83;;;23.50;;
1378;SDS011;683;48.738;9.226;2022-12-18T06:08:50;40.63;;;22.27;;
1378;SDS011;683;48.738;9.226;2022-12-18T06:11:19;43.70;;;23.80;;
1378;SDS011;683;48.738;9.226;2022-12-18T06:13:50;43.13;;;23.40;;
1378;SDS011;683;48.738;9.226;2022-12-18T06:16:18;40.47;;;21.03;;
1378;SDS011;683;48.738;9.226;2022-12-18T06:18:45;39.83;;;22.03;;
1378;SDS011;683;48.738;9.226;2022-12-18T06:21:13;36.90;;;21.43;;
1378;SDS011;683;48.738;9.226;2022-12-18T06:23:40;46.03;;;23.83;;
1378;SDS011;683;48.738;9.226;2022-12-18T06:26:08;42.47;;;22.90;;
1378;SDS011;683;48.738;9.226;2022-12-18T06:28:36;41.37;;;22.90;;
1378;SDS011;683;48.738;9.226;2022-12-18T06:31:05;46.87;;;23.63;;
1378;SDS011;683;48.738;9.226;2022-12-18T06:33:33;50.03;;;25.33;;
1378;SDS011;683;48.738;9.226;2022-12-18T06:36:01;38.03;;;22.63;;
1378;SDS011;683;48.738;9.226;2022-12-18T06:38:30;46.60;;;24.13;;
1378;SDS011;683;48.738;9.226;2022-12-18T06:40:58;37.90;;;23.10;;
1378;SDS011;683;48.738;9.226;2022-12-18T06:43:25;47.47;;;24.87;;
1378;SDS011;683;48.738;9.226;2022-12-18T06:45:59;42.53;;;23.23;;
1378;SDS011;683;48.738;9.226;2022-12-18T06:48:28;47.57;;;23.47;;
1378;SDS011;683;48.738;9.226;2022-12-18T06:50:56;46.07;;;23.30;;
1378;SDS011;683;48.738;9.226;2022-12-18T06:53:24;47.13;;;24.50;;
1378;SDS011;683;48.738;9.226;2022-12-18T06:55:51;49.23;;;24.87;;
1378;SDS011;683;48.738;9.226;2022-12-18T06:58:19;46.83;;;24.23;;
1378;SDS011;683;48.738;9.226;2022-12-18T07:00:46;47.00;;;24.97;;
1378;SDS011;683;48.738;9.226;2022-12-18T07:03:13;45.97;;;24.70;;
1378;SDS011;683;48.738;9.226;2022-12-18T07:05:42;50.33;;;26.50;;
1378;SDS011;683;48.738;9.226;2022-12-18T07:08:09;45.17;;;24.60;;
1378;SDS011;683;48.738;9.226;2022-12-18T07:10:40;46.70;;;27.77;;
1378;SDS011;683;48.738;9.226;2022-12-18T07:13:08;51.67;;;28.17;;
1378;SDS011;683;48.738;9.226;2022-12-18T07:15:35;43.63;;;26.47;;
1378;SDS011;683;48.738;9.226;2022-12-18T07:18:03;56.37;;;29.13;;
1378;SDS011;683;48.738;9.226;2022-12-18T07:20:30;45.60;;;26.03;;
1378;SDS011;683;48.738;9.226;2022-12-18T07:22:59;42.97;;;23.57;;
1378;SDS011;683;48.738;9.226;2022-12-18T07:25:28;51.57;;;23.67;;
1378;SDS011;683;48.738;9.226;2022-12-18T07:27:55;47.50;;;23.87;;
1378;SDS011;683;48.738;9.226;2022-12-18T07:30:22;50.83;;;25.83;;
1378;SDS011;683;48.738;9.226;2022-12-18T07:32:50;51.77;;;26.73;;
1378;SDS011;683;48.738;9.226;2022-12-18T07:35:17;41.73;;;26.17;;
1378;SDS011;683;48.738;9.226;2022-12-18T07:37:44;49.40;;;25.93;;
1378;SDS011;683;48.738;9.226;2022-12-18T07:40:13;51.37;;;25.20;;
1378;SDS011;683;48.738;9.226;2022-12-18T07:42:40;46.40;;;24.70;;
1378;SDS011;683;48.738;9.226;2022-12-18T07:45:08;45.63;;;25.70;;
1378;SDS011;683;48.738;9.226;2022-12-18T07:47:36;45.80;;;25.67;;
1378;SDS011;683;48.738;9.226;2022-12-18T07:50:04;43.13;;;24.53;;
1378;SDS011;683;48.738;9.226;2022-12-18T07:52:32;40.13;;;22.43;;
1378;SDS011;683;48.738;9.226;2022-12-18T07:54:59;50.17;;;25.87;;
1378;SDS011;683;48.738;9.226;2022-12-18T07:57:30;45.97;;;25.97;;
1378;SDS011;683;48.738;9.226;2022-12-18T07:59:57;42.23;;;25.13;;
1378;SDS011;683;48.738;9.226;2022-12-18T08:02:24;46.23;;;23.87;;
1378;SDS011;683;48.738;9.226;2022-12-18T08:04:51;44.20;;;26.00;;
1378;SDS011;683;48.738;9.226;2022-12-18T08:07:19;45.17;;;23.40;;
1378;SDS011;683;48.738;9.226;2022-12-18T08:09:46;47.37;;;25.20;;
1378;SDS011;683;48.738;9.226;2022-12-18T08:15:07;53.13;;;27.63;;
1378;SDS011;683;48.738;9.226;2022-12-18T08:17:35;42.93;;;26.00;;
1378;SDS011;683;48.738;9.226;2022-12-18T08:20:02;45.10;;;26.17;;
1378;SDS011;683;48.738;9.226;2022-12-18T08:22:29;56.03;;;28.63;;
1378;SDS011;683;48.738;9.226;2022-12-18T08:24:57;48.87;;;27.10;;
1378;SDS011;683;48.738;9.226;2022-12-18T08:27:24;43.30;;;26.90;;
1378;SDS011;683;48.738;9.226;2022-12-18T08:29:52;45.40;;;26.53;;
1378;SDS011;683;48.738;9.226;2022-12-18T08:32:20;53.10;;;30.77;;
1378;SDS011;683;48.738;9.226;2022-12-18T08:34:47;50.70;;;27.77;;
1378;SDS011;683;48.738;9.226;2022-12-18T08:37:15;44.13;;;25.57;;
1378;SDS011;683;48.738;9.226;2022-12-18T08:39:42;53.57;;;29.37;;
1378;SDS011;683;48.738;9.226;2022-12-18T08:42:09;44.57;;;25.63;;
1378;SDS011;683;48.738;9.226;2022-12-18T08:44:55;47.70;;;26.27;;
1378;SDS011;683;48.738;9.226;2022-12-18T08:47:22;49.13;;;27.30;;
1378;SDS011;683;48.738;9.226;2022-12-18T08:49:51;47.23;;;27.63;;
1378;SDS011;683;48.738;9.226;2022-12-18T08:52:18;44.20;;;24.53;;
1378;SDS011;683;48.738;9.226;2022-12-18T08:54:45;55.07;;;28.87;;
1378;SDS011;683;48.738;9.226;2022-12-18T08:57:13;49.30;;;24.43;;
1378;SDS011;683;48.738;9.226;2022-12-18T08:59:40;45.57;;;27.30;;
1378;SDS011;683;48.738;9.226;2022-12-18T09:02:09;45.00;;;26.27;;
1378;SDS011;683;48.738;9.226;2022-12-18T09:04:36;43.53;;;24.60;;
1378;SDS011;683;48.738;9.226;2022-12-18T09:07:05;44.60;;;26.23;;
1378;SDS011;683;48.738;9.226;2022-12-18T09:09:32;41.10;;;24.40;;
1378;SDS011;683;48.738;9.226;2022-12-18T09:11:59;46.83;;;25.43;;
1378;SDS011;683;48.738;9.226;2022-12-18T09:14:27;42.83;;;27.07;;
1378;SDS011;683;48.738;9.226;2022-12-18T09:16:54;42.57;;;24.50;;
1378;SDS011;683;48.738;9.226;2022-12-18T09:19:22;44.50;;;24.23;;
1378;SDS011;683;48.738;9.226;2022-12-18T09:21:50;44.40;;;27.07;;
1378;SDS011;683;48.738;9.226;2022-12-18T09:24:17;35.73;;;22.00;;
1378;SDS011;683;48.738;9.226;2022-12-18T09:26:44;40.97;;;24.40;;
1378;SDS011;683;48.738;9.226;2022-12-18T09:29:11;48.37;;;26.50;;
1378;SDS011;683;48.738;9.226;2022-12-18T09:31:39;44.00;;;24.07;;
1378;SDS011;683;48.738;9.226;2022-12-18T09:34:06;48.67;;;25.40;;
1378;SDS011;683;48.738;9.226;2022-12-18T09:36:35;44.93;;;26.73;;
1378;SDS011;683;48.738;9.226;2022-12-18T09:39:03;42.73;;;23.07;;
1378;SDS011;683;48.738;9.226;2022-12-18T09:41:39;46.17;;;26.47;;
1378;SDS011;683;48.738;9.226;2022-12-18T09:44:13;41.33;;;25.37;;
1378;SDS011;683;48.738;9.226;2022-12-18T09:46:46;39.73;;;22.57;;
1378;SDS011;683;48.738;9.226;2022-12-18T09:49:18;40.17;;;23.77;;
1378;SDS011;683;48.738;9.226;2022-12-18T09:51:54;48.10;;;26.60;;
1378;SDS011;683;48.738;9.226;2022-12-18T09:54:28;48.33;;;26.07;;
1378;SDS011;683;48.738;9.226;2022-12-18T09:57:00;42.03;;;23.50;;
1378;SDS011;683;48.738;9.226;2022-12-18T09:59:30;43.00;;;24.83;;
1378;SDS011;683;48.738;9.226;2022-12-18T10:02:11;42.90;;;23.90;;
1378;SDS011;683;48.738;9.226;2022-12-18T10:04:44;39.10;;;24.13;;
1378;SDS011;683;48.738;9.226;2022-12-18T10:07:27;44.47;;;24.10;;
1378;SDS011;683;48.738;9.226;2022-12-18T10:10:04;48.07;;;24.60;;
1378;SDS011;683;48.738;9.226;2022-12-18T10:12:45;40.70;;;23.07;;
1378;SDS011;683;48.738;9.226;2022-12-18T10:15:21;39.30;;;24.67;;
1378;SDS011;683;48.738;9.226;2022-12-18T10:17:56;48.60;;;26.50;;
1378;SDS011;683;48.738;9.226;2022-12-18T10:20:29;42.43;;;24.60;;
1378;SDS011;683;48.738;9.226;2022-12-18T10:23:03;50.80;;;25.03;;
1378;SDS011;683;48.738;9.226;2022-12-18T10:25:50;40.07;;;25.03;;
1378;SDS011;683;48.738;9.226;2022-12-18T10:28:22;44.50;;;24.07;;
1378;SDS011;683;48.738;9.226;2022-12-18T10:30:51;47.73;;;27.93;;
1378;SDS011;683;48.738;9.226;2022-12-18T10:33:19;43.33;;;26.47;;
1378;SDS011;683;48.738;9.226;2022-12-18T10:35:48;45.00;;;24.40;;
1378;SDS011;683;48.738;9.226;2022-12-18T10:38:22;45.50;;;26.83;;
1378;SDS011;683;48.738;9.226;2022-12-18T10:40:52;43.63;;;25.60;;
1378;SDS011;683;48.738;9.226;2022-12-18T10:43:23;41.53;;;26.03;;
1378;SDS011;683;48.738;9.226;2022-12-18T10:45:59;38.77;;;25.27;;
1378;SDS011;683;48.738;9.226;2022-12-18T10:48:28;41.60;;;24.63;;
1378;SDS011;683;48.738;9.226;2022-12-18T10:50:57;46.43;;;28.47;;
1378;SDS011;683;48.738;9.226;2022-12-18T10:53:27;43.47;;;25.67;;
1378;SDS011;683;48.738;9.226;2022-12-18T10:55:55;45.73;;;25.70;;
1378;SDS011;683;48.738;9.226;2022-12-18T10:58:29;48.20;;;26.47;;
1378;SDS011;683;48.738;9.226;2022-12-18T11:01:02;43.97;;;26.07;;
1378;SDS011;683;48.738;9.226;2022-12-18T11:03:32;49.77;;;25.23;;
1378;SDS011;683;48.738;9.226;2022-12-18T11:06:03;40.80;;;25.20;;
1378;SDS011;683;48.738;9.226;2022-12-18T11:08:34;49.80;;;26.00;;
1378;SDS011;683;48.738;9.226;2022-12-18T11:11:01;43.50;;;25.50;;
1378;SDS011;683;48.738;9.226;2022-12-18T11:13:30;40.40;;;22.50;;
1378;SDS011;683;48.738;9.226;2022-12-18T11:15:58;38.43;;;23.40;;
1378;SDS011;683;48.738;9.226;2022-12-18T11:18:27;34.70;;;20.00;;
1378;SDS011;683;48.738;9.226;2022-12-18T11:20:56;45.83;;;21.77;;
1378;SDS011;683;48.738;9.226;2022-12-18T11:23:26;32.77;;;22.57;;
1378;SDS011;683;48.738;9.226;2022-12-18T11:25:56;42.23;;;25.40;;
1378;SDS011;683;48.738;9.226;2022-12-18T11:28:29;37.07;;;24.33;;
1378;SDS011;683;48.738;9.226;2022-12-18T11:33:58;38.33;;;21.57;;
1378;SDS011;683;48.738;9.226;2022-12-18T11:36:29;41.83;;;22.83;;
1378;SDS011;683;48.738;9.226;2022-12-18T11:39:01;43.53;;;23.30;;
1378;SDS011;683;48.738;9.226;2022-12-18T11:41:38;39.10;;;21.90;;
1378;SDS011;683;48.738;9.226;2022-12-18T11:44:30;40.40;;;22.10;;
1378;SDS011;683;48.738;9.226;2022-12-18T11:47:05;35.27;;;22.20;;
1378;SDS011;683;48.738;9.226;2022-12-18T11:49:40;39.20;;;23.77;;
1378;SDS011;683;48.738;9.226;2022-12-18T11:52:09;42.70;;;23.10;;
1378;SDS011;683;48.738;9.226;2022-12-18T11:54:43;42.87;;;21.30;;
1378;SDS011;683;48.738;9.226;2022-12-18T11:57:13;43.03;;;23.83;;
1378;SDS011;683;48.738;9.226;2022-12-18T11:59:54;43.70;;;24.93;;
1378;SDS011;683;48.738;9.226;2022-12-18T12:02:42;40.50;;;23.23;;
1378;SDS011;683;48.738;9.226;2022-12-18T12:05:40;42.50;;;26.47;;
1378;SDS011;683;48.738;9.226;2022-12-18T12:08:18;37.33;;;22.07;;
1378;SDS011;683;48.738;9.226;2022-12-18T12:10:56;42.43;;;24.40;;
1378;SDS011;683;48.738;9.226;2022-12-18T12:13:32;35.77;;;21.70;;
1378;SDS011;683;48.738;9.226;2022-12-18T12:16:13;36.80;;;23.97;;
1378;SDS011;683;48.738;9.226;2022-12-18T12:18:48;40.90;;;22.80;;
1378;SDS011;683;48.738;9.226;2022-12-18T12:21:27;43.77;;;23.37;;
1378;SDS011;683;48.738;9.226;2022-12-18T12:24:03;40.20;;;24.63;;
1378;SDS011;683;48.738;9.226;2022-12-18T12:26:38;43.90;;;24.13;;
1378;SDS011;683;48.738;9.226;2022-12-18T12:29:21;44.70;;;25.07;;
1378;SDS011;683;48.738;9.226;2022-12-18T12:32:02;44.20;;;25.70;;
1378;SDS011;683;48.738;9.226;2022-12-18T12:34:38;50.40;;;23.90;;
1378;SDS011;683;48.738;9.226;2022-12-18T12:37:20;42.73;;;24.87;;
1378;SDS011;683;48.738;9.226;2022-12-18T12:39:55;44.47;;;25.57;;
1378;SDS011;683;48.738;9.226;2022-12-18T12:42:25;45.20;;;25.27;;
1378;SDS011;683;48.738;9.226;2022-12-18T12:45:18;41.43;;;24.87;;
1378;SDS011;683;48.738;9.226;2022-12-18T12:47:49;50.53;;;27.17;;
1378;SDS011;683;48.738;9.226;2022-12-18T12:50:18;37.23;;;24.17;;
1378;SDS011;683;48.738;9.226;2022-12-18T12:52:47;41.63;;;26.77;;
1378;SDS011;683;48.738;9.226;2022-12-18T12:55:19;42.83;;;24.90;;
1378;SDS011;683;48.738;9.226;2022-12-18T12:57:51;38.87;;;24.67;;
1378;SDS011;683;48.738;9.226;2022-12-18T13:00:25;45.10;;;27.23;;
1378;SDS011;683;48.738;9.226;2022-12-18T13:03:03;38.10;;;23.10;;
1378;SDS011;683;48.738;9.226;2022-12-18T13:05:39;41.73;;;26.07;;
1378;SDS011;683;48.738;9.226;2022-12-18T13:08:21;42.77;;;26.43;;
1378;SDS011;683;48.738;9.226;2022-12-18T13:10:49;40.80;;;24.30;;
1378;SDS011;683;48.738;9.226;2022-12-18T13:13:47;40.30;;;21.70;;
1378;SDS011;683;48.738;9.226;2022-12-18T13:16:16;38.43;;;24.10;;
1378;SDS011;683;48.738;9.226;2022-12-18T13:18:49;42.60;;;25.20;;
1378;SDS011;683;48.738;9.226;2022-12-18T13:21:20;45.40;;;24.43;;
1378;SDS011;683;48.738;9.226;2022-12-18T13:23:50;40.13;;;23.50;;
1378;SDS011;683;48.738;9.226;2022-12-18T13:26:31;44.57;;;25.10;;
1378;SDS011;683;48.738;9.226;2022-12-18T13:28:59;44.43;;;26.43;;
1378;SDS011;683;48.738;9.226;2022-12-18T13:34:26;40.30;;;24.10;;
1378;SDS011;683;48.738;9.226;2022-12-18T13:36:56;45.20;;;26.17;;
1378;SDS011;683;48.738;9.226;2022-12-18T13:39:44;40.73;;;25.57;;
1378;SDS011;683;48.738;9.226;2022-12-18T13:48:15;44.47;;;25.47;;
1378;SDS011;683;48.738;9.226;2022-12-18T13:50:49;44.87;;;24.63;;
1378;SDS011;683;48.738;9.226;2022-12-18T13:53:20;49.17;;;27.10;;
1378;SDS011;683;48.738;9.226;2022-12-18T13:55:49;37.50;;;24.00;;
1378;SDS011;683;48.738;9.226;2022-12-18T13:58:17;41.63;;;24.07;;
1378;SDS011;683;48.738;9.226;2022-12-18T14:00:44;46.13;;;27.57;;
1378;SDS011;683;48.738;9.226;2022-12-18T14:03:17;40.50;;;24.70;;
1378;SDS011;683;48.738;9.226;2022-12-18T14:05:46;46.23;;;27.70;;
1378;SDS011;683;48.738;9.226;2022-12-18T14:08:25;35.23;;;23.07;;
1378;SDS011;683;48.738;9.226;2022-12-18T14:10:58;42.53;;;26.07;;
1378;SDS011;683;48.738;9.226;2022-12-18T14:13:28;43.90;;;25.80;;
1378;SDS011;683;48.738;9.226;2022-12-18T14:15:57;47.47;;;25.87;;
1378;SDS011;683;48.738;9.226;2022-12-18T14:18:30;45.30;;;27.00;;
1378;SDS011;683;48.738;9.226;2022-12-18T14:21:02;45.40;;;25.77;;
1378;SDS011;683;48.738;9.226;2022-12-18T14:23:33;43.63;;;26.57;;
1378;SDS011;683;48.738;9.226;2022-12-18T14:26:02;40.53;;;23.40;;
1378;SDS011;683;48.738;9.226;2022-12-18T14:28:45;42.87;;;24.50;;
1378;SDS011;683;48.738;9.226;2022-12-18T14:31:17;44.27;;;25.30;;
1378;SDS011;683;48.738;9.226;2022-12-18T14:33:47;45.70;;;26.27;;
1378;SDS011;683;48.738;9.226;2022-12-18T14:36:16;44.70;;;25.40;;
1378;SDS011;683;48.738;9.226;2022-12-18T14:38:47;48.10;;;26.50;;
1378;SDS011;683;48.738;9.226;2022-12-18T14:41:16;41.30;;;27.27;;
1378;SDS011;683;48.738;9.226;2022-12-18T14:43:45;54.10;;;27.80;;
1378;SDS011;683;48.738;9.226;2022-12-18T14:46:27;47.90;;;29.07;;
1378;SDS011;683;48.738;9.226;2022-12-18T14:48:59;54.27;;;29.87;;
1378;SDS011;683;48.738;9.226;2022-12-18T14:51:28;50.53;;;27.07;;
1378;SDS011;683;48.738;9.226;2022-12-18T14:53:57;54.23;;;28.97;;
1378;SDS011;683;48.738;9.226;2022-12-18T14:56:27;44.87;;;26.67;;
1378;SDS011;683;48.738;9.226;2022-12-18T14:58:57;47.80;;;27.10;;
1378;SDS011;683;48.738;9.226;2022-12-18T15:01:27;49.07;;;28.30;;
1378;SDS011;683;48.738;9.226;2022-12-18T15:03:56;59.60;;;28.13;;
1378;SDS011;683;48.738;9.226;2022-12-18T15:06:27;52.70;;;27.93;;
1378;SDS011;683;48.738;9.226;2022-12-18T15:08:57;55.47;;;31.40;;
1378;SDS011;683;48.738;9.226;2022-12-18T15:11:25;53.23;;;29.07;;
1378;SDS011;683;48.738;9.226;2022-12-18T15:14:00;49.40;;;29.10;;
1378;SDS011;683;48.738;9.226;2022-12-18T15:16:42;42.43;;;27.80;;
1378;SDS011;683;48.738;9.226;2022-12-18T15:19:11;54.67;;;29.27;;
1378;SDS011;683;48.738;9.226;2022-12-18T15:21:38;55.63;;;31.40;;
1378;SDS011;683;48.738;9.226;2022-12-18T15:24:13;50.70;;;29.50;;
1378;SDS011;683;48.738;9.226;2022-12-18T15:26:44;53.80;;;29.67;;
1378;SDS011;683;48.738;9.226;2022-12-18T15:29:17;54.73;;;28.57;;
1378;SDS011;683;48.738;9.226;2022-12-18T15:31:59;55.73;;;29.60;;
1378;SDS011;683;48.738;9.226;2022-12-18T15:34:29;55.00;;;29.10;;
1378;SDS011;683;48.738;9.226;2022-12-18T15:36:57;61.07;;;31.20;;
1378;SDS011;683;48.738;9.226;2022-12-18T15:42:17;55.67;;;29.37;;